Time;durP1;ratioP1;P1;durP2;ratioP2;P2;SDS_P1;SDS_P2;PMS_P1;PMS_P2;Temp;Humidity;BMP_temperature;BMP_pressure;BME280_temperature;BME280_humidity;BME280_pressure;Samples;Min_cycle;Max_cycle;Signal;HPM_P1;HPM_P2
2021/01/02 00:02:11;;;;;;;26.00;10.68;;;;;;;;;;5060862;28;20063;-85
2021/01/02 00:04:40;;;;;;;15.00;6.75;;;;;;;;;;5043095;28;20045;-85
2021/01/02 00:07:25;;;;;;;12.25;5.07;;;;;;;;;;5042875;28;20019;-84
2021/01/02 00:10:00;;;;;;;12.00;3.88;;;;;;;;;;5043111;28;20022;-85
2021/01/02 00:12:26;;;;;;;14.63;3.95;;;;;;;;;;5047982;28;20457;-86
2021/01/02 00:14:59;;;;;;;13.20;4.18;;;;;;;;;;5050300;28;20033;-86
2021/01/02 00:17:48;;;;;;;14.93;5.13;;;;;;;;;;5068153;28;20043;-85
2021/01/02 00:20:33;;;;;;;11.15;4.28;;;;;;;;;;5044130;28;20432;-85
2021/01/02 00:22:59;;;;;;;13.98;4.82;;;;;;;;;;5053318;28;20020;-85
2021/01/02 00:25:29;;;;;;;15.32;4.85;;;;;;;;;;5040637;28;20025;-85
2021/01/02 00:27:58;;;;;;;13.25;4.63;;;;;;;;;;5049965;28;20589;-84
2021/01/02 00:30:42;;;;;;;13.45;4.65;;;;;;;;;;5057927;28;20041;-85
2021/01/02 00:33:19;;;;;;;10.10;4.13;;;;;;;;;;5052567;28;20473;-85
2021/01/02 00:35:47;;;;;;;13.18;4.57;;;;;;;;;;5050151;28;20029;-87
2021/01/02 00:38:14;;;;;;;11.60;5.07;;;;;;;;;;5047051;28;20441;-87
2021/01/02 00:40:40;;;;;;;10.57;4.78;;;;;;;;;;5044251;28;20466;-87
2021/01/02 00:43:07;;;;;;;14.70;5.35;;;;;;;;;;5046933;28;20025;-87
2021/01/02 00:45:33;;;;;;;11.40;5.05;;;;;;;;;;5063441;28;20021;-88
2021/01/02 00:48:01;;;;;;;11.65;4.00;;;;;;;;;;5057650;28;20048;-88
2021/01/02 00:50:28;;;;;;;14.05;5.57;;;;;;;;;;5059698;28;20021;-88
2021/01/02 00:52:54;;;;;;;15.65;4.82;;;;;;;;;;5049717;28;20044;-87
2021/01/02 00:55:26;;;;;;;18.83;5.05;;;;;;;;;;5048623;28;20025;-88
2021/01/02 00:57:58;;;;;;;13.30;5.03;;;;;;;;;;5051596;28;20048;-87
2021/01/02 01:00:33;;;;;;;15.63;4.90;;;;;;;;;;5052394;28;20017;-87
2021/01/02 01:03:06;;;;;;;17.65;6.47;;;;;;;;;;5046168;28;20025;-88
2021/01/02 01:05:33;;;;;;;13.75;5.70;;;;;;;;;;5047049;28;20518;-87
2021/01/02 01:07:59;;;;;;;13.30;6.72;;;;;;;;;;5050643;28;20037;-87
2021/01/02 01:10:27;;;;;;;8.15;3.30;;;;;;;;;;5048934;28;20074;-87
2021/01/02 01:12:58;;;;;;;9.27;3.38;;;;;;;;;;5058409;28;20082;-88
2021/01/02 01:15:24;;;;;;;9.93;4.20;;;;;;;;;;5044782;28;20032;-88
2021/01/02 01:18:04;;;;;;;11.57;4.43;;;;;;;;;;5058653;28;20028;-88
2021/01/02 01:20:31;;;;;;;11.80;3.50;;;;;;;;;;5044083;28;20095;-88
2021/01/02 01:23:12;;;;;;;9.57;3.40;;;;;;;;;;5050923;28;20079;-87
2021/01/02 01:25:40;;;;;;;9.87;4.10;;;;;;;;;;5044292;28;20042;-86
2021/01/02 01:28:09;;;;;;;10.60;3.40;;;;;;;;;;5049575;28;20108;-86
2021/01/02 01:30:38;;;;;;;11.32;3.90;;;;;;;;;;5053466;28;20102;-86
2021/01/02 01:33:05;;;;;;;11.88;4.30;;;;;;;;;;5053191;28;20398;-86
2021/01/02 01:35:31;;;;;;;13.30;4.80;;;;;;;;;;5041396;28;20060;-86
2021/01/02 01:37:57;;;;;;;11.50;3.35;;;;;;;;;;5057453;28;20036;-86
2021/01/02 01:40:24;;;;;;;8.23;3.13;;;;;;;;;;5061331;28;20016;-86
2021/01/02 01:43:01;;;;;;;17.27;3.92;;;;;;;;;;5055754;28;20024;-86
2021/01/02 01:45:39;;;;;;;8.57;2.85;;;;;;;;;;5060943;28;20139;-86
2021/01/02 01:48:07;;;;;;;9.05;3.28;;;;;;;;;;5052895;28;20048;-87
2021/01/02 01:50:43;;;;;;;13.02;3.58;;;;;;;;;;5036603;28;20513;-86
2021/01/02 01:53:28;;;;;;;7.95;2.55;;;;;;;;;;5033226;28;20568;-86
2021/01/02 01:56:24;;;;;;;10.02;2.80;;;;;;;;;;5041983;28;20150;-87
2021/01/02 01:58:53;;;;;;;9.68;2.60;;;;;;;;;;5040045;28;20047;-87
2021/01/02 02:01:26;;;;;;;12.70;2.75;;;;;;;;;;5054366;28;20028;-87
2021/01/02 02:04:15;;;;;;;7.75;2.60;;;;;;;;;;5045119;28;20052;-88
2021/01/02 02:06:52;;;;;;;7.30;3.78;;;;;;;;;;5019402;28;20037;-87
2021/01/02 02:09:22;;;;;;;11.75;2.83;;;;;;;;;;5047144;28;20045;-87
2021/01/02 02:11:54;;;;;;;5.88;2.40;;;;;;;;;;5051266;28;20036;-87
2021/01/02 02:14:50;;;;;;;14.13;2.40;;;;;;;;;;5051475;28;20163;-85
2021/01/02 02:17:23;;;;;;;9.18;2.60;;;;;;;;;;5018148;28;20498;-87
2021/01/02 02:19:49;;;;;;;7.25;2.10;;;;;;;;;;5046598;28;20037;-86
2021/01/02 02:22:16;;;;;;;13.20;4.78;;;;;;;;;;5043270;28;20029;-87
2021/01/02 02:24:43;;;;;;;10.82;2.85;;;;;;;;;;5043886;28;20029;-86
2021/01/02 02:27:12;;;;;;;9.45;3.10;;;;;;;;;;5062159;28;20052;-86
2021/01/02 02:29:39;;;;;;;14.75;3.42;;;;;;;;;;5045874;28;20056;-86
2021/01/02 02:32:09;;;;;;;16.13;5.38;;;;;;;;;;5052163;28;20032;-86
2021/01/02 02:34:35;;;;;;;17.88;5.53;;;;;;;;;;5052604;28;20507;-86
2021/01/02 02:37:01;;;;;;;19.15;6.13;;;;;;;;;;5058629;28;20486;-86
2021/01/02 02:39:27;;;;;;;18.05;8.25;;;;;;;;;;5045858;28;20033;-88
2021/01/02 02:41:56;;;;;;;19.05;9.10;;;;;;;;;;5057003;28;20108;-87
2021/01/02 02:44:26;;;;;;;16.20;6.60;;;;;;;;;;5052894;28;20055;-87
2021/01/02 02:46:55;;;;;;;22.25;8.73;;;;;;;;;;5049022;28;20311;-87
2021/01/02 02:49:25;;;;;;;20.52;7.65;;;;;;;;;;5050096;28;20048;-88
2021/01/02 02:52:09;;;;;;;16.88;7.35;;;;;;;;;;5050843;28;20608;-87
2021/01/02 02:54:36;;;;;;;15.38;7.00;;;;;;;;;;5038779;28;20037;-87
2021/01/02 02:57:03;;;;;;;19.00;7.90;;;;;;;;;;5047511;28;20029;-87
2021/01/02 02:59:29;;;;;;;25.17;6.97;;;;;;;;;;5035964;28;20466;-87
2021/01/02 03:01:55;;;;;;;17.40;7.40;;;;;;;;;;5041324;28;20017;-87
2021/01/02 03:04:21;;;;;;;16.85;6.43;;;;;;;;;;5052734;28;20029;-87
2021/01/02 03:06:47;;;;;;;15.25;7.25;;;;;;;;;;5048227;28;20399;-87
2021/01/02 03:09:14;;;;;;;16.17;6.53;;;;;;;;;;5043245;28;20534;-87
2021/01/02 03:11:43;;;;;;;11.30;5.53;;;;;;;;;;5049058;28;20025;-88
2021/01/02 03:14:09;;;;;;;12.65;6.07;;;;;;;;;;5056308;28;20055;-87
2021/01/02 03:16:35;;;;;;;12.35;5.57;;;;;;;;;;5051378;28;20025;-87
2021/01/02 03:19:03;;;;;;;12.50;5.63;;;;;;;;;;5044622;28;20558;-86
2021/01/02 03:21:30;;;;;;;12.48;4.78;;;;;;;;;;5063956;28;20017;-87
2021/01/02 03:23:58;;;;;;;13.63;5.63;;;;;;;;;;5041223;28;20017;-87
2021/01/02 03:26:24;;;;;;;12.07;4.75;;;;;;;;;;5044303;28;20033;-86
2021/01/02 03:28:51;;;;;;;11.95;4.57;;;;;;;;;;5053745;28;20103;-86
2021/01/02 03:31:18;;;;;;;12.63;4.05;;;;;;;;;;5053225;28;20565;-86
2021/01/02 03:33:44;;;;;;;10.07;4.18;;;;;;;;;;5056220;28;20042;-85
2021/01/02 03:36:11;;;;;;;10.27;4.40;;;;;;;;;;5046782;28;20441;-85
2021/01/02 03:38:38;;;;;;;10.25;3.88;;;;;;;;;;5047793;28;20056;-87
2021/01/02 03:41:04;;;;;;;13.52;4.65;;;;;;;;;;5048839;28;20104;-87
2021/01/02 03:43:30;;;;;;;13.32;4.53;;;;;;;;;;5045421;28;20093;-86
2021/01/02 03:45:56;;;;;;;9.52;4.28;;;;;;;;;;5051489;28;20112;-87
2021/01/02 03:48:22;;;;;;;13.35;4.10;;;;;;;;;;5048352;28;20164;-85
2021/01/02 03:50:48;;;;;;;9.88;3.90;;;;;;;;;;5049763;28;20043;-85
2021/01/02 03:53:14;;;;;;;8.10;3.63;;;;;;;;;;5051357;28;20039;-85
2021/01/02 03:55:40;;;;;;;8.27;3.40;;;;;;;;;;5046249;28;20133;-85
2021/01/02 03:58:07;;;;;;;11.05;4.13;;;;;;;;;;5035251;28;20059;-86
2021/01/02 04:00:33;;;;;;;12.77;3.80;;;;;;;;;;5051958;28;20029;-88
2021/01/02 04:03:02;;;;;;;10.95;4.18;;;;;;;;;;5059311;28;20029;-87
2021/01/02 04:05:28;;;;;;;8.45;3.75;;;;;;;;;;5046656;28;20038;-88
2021/01/02 04:07:55;;;;;;;7.65;3.55;;;;;;;;;;5045583;28;20055;-87
2021/01/02 04:10:21;;;;;;;7.85;3.50;;;;;;;;;;5048254;28;20033;-86
2021/01/02 04:12:47;;;;;;;9.13;3.33;;;;;;;;;;5049556;28;20041;-88
2021/01/02 04:15:13;;;;;;;8.02;3.22;;;;;;;;;;5049212;28;20029;-88
2021/01/02 04:17:39;;;;;;;9.73;3.42;;;;;;;;;;5057275;28;20017;-88
2021/01/02 04:20:06;;;;;;;8.55;2.80;;;;;;;;;;5062325;28;20044;-88
2021/01/02 04:22:32;;;;;;;9.38;3.22;;;;;;;;;;5043430;28;20124;-87
2021/01/02 04:24:59;;;;;;;12.07;2.88;;;;;;;;;;5046639;28;20043;-87
2021/01/02 04:27:25;;;;;;;10.60;3.20;;;;;;;;;;5052504;28;20033;-88
2021/01/02 04:29:52;;;;;;;8.18;3.35;;;;;;;;;;5046135;28;20040;-88
2021/01/02 04:32:18;;;;;;;7.30;3.25;;;;;;;;;;5052885;28;20159;-86
2021/01/02 04:34:44;;;;;;;9.15;2.95;;;;;;;;;;5045711;28;20040;-88
2021/01/02 04:37:10;;;;;;;8.93;2.45;;;;;;;;;;5051662;28;20032;-87
2021/01/02 04:39:36;;;;;;;9.32;2.70;;;;;;;;;;5043065;28;20021;-87
2021/01/02 04:42:02;;;;;;;7.53;2.80;;;;;;;;;;5057558;28;20027;-86
2021/01/02 04:44:28;;;;;;;5.95;2.40;;;;;;;;;;5044211;28;20406;-88
2021/01/02 04:46:55;;;;;;;7.60;2.75;;;;;;;;;;5044105;28;20087;-88
2021/01/02 04:49:21;;;;;;;8.38;2.53;;;;;;;;;;5053359;28;20507;-87
2021/01/02 04:51:47;;;;;;;7.15;2.85;;;;;;;;;;5043623;28;20041;-88
2021/01/02 04:54:14;;;;;;;8.73;2.88;;;;;;;;;;5052593;28;20039;-88
2021/01/02 04:56:40;;;;;;;7.13;2.40;;;;;;;;;;5050535;28;20098;-86
2021/01/02 04:59:10;;;;;;;6.85;2.83;;;;;;;;;;5059291;28;20033;-85
2021/01/02 05:01:40;;;;;;;6.68;2.90;;;;;;;;;;5051715;28;20056;-86
2021/01/02 05:04:07;;;;;;;7.85;2.88;;;;;;;;;;5057972;28;20053;-86
2021/01/02 05:06:33;;;;;;;9.73;2.75;;;;;;;;;;5050415;28;20270;-85
2021/01/02 05:09:00;;;;;;;6.60;2.50;;;;;;;;;;5049685;28;20025;-86
2021/01/02 05:11:26;;;;;;;8.43;2.25;;;;;;;;;;5040607;28;20079;-85
2021/01/02 05:14:00;;;;;;;6.85;2.70;;;;;;;;;;5047258;28;20067;-86
2021/01/02 05:16:36;;;;;;;5.75;1.90;;;;;;;;;;5049022;28;20431;-85
2021/01/02 05:19:04;;;;;;;6.25;2.15;;;;;;;;;;5053600;28;20031;-86
2021/01/02 05:21:31;;;;;;;6.88;2.70;;;;;;;;;;5037429;28;20021;-87
2021/01/02 05:24:06;;;;;;;8.75;2.88;;;;;;;;;;5041248;28;20056;-87
2021/01/02 05:26:32;;;;;;;7.43;2.60;;;;;;;;;;5045541;28;20052;-86
2021/01/02 05:29:15;;;;;;;6.68;2.50;;;;;;;;;;5050514;28;20114;-87
2021/01/02 05:31:42;;;;;;;9.30;2.65;;;;;;;;;;5052159;28;20025;-87
2021/01/02 05:34:08;;;;;;;11.68;4.05;;;;;;;;;;5040386;28;20490;-87
2021/01/02 05:36:35;;;;;;;11.95;4.25;;;;;;;;;;5035071;28;20025;-86
2021/01/02 05:39:01;;;;;;;14.68;4.63;;;;;;;;;;5045196;28;20021;-86
2021/01/02 05:41:28;;;;;;;11.75;4.72;;;;;;;;;;5059146;28;20024;-86
2021/01/02 05:44:10;;;;;;;14.77;4.95;;;;;;;;;;5053126;28;20032;-86
2021/01/02 05:46:43;;;;;;;11.07;4.60;;;;;;;;;;5053343;28;20520;-86
2021/01/02 05:49:27;;;;;;;16.02;6.05;;;;;;;;;;5054540;28;20502;-86
2021/01/02 05:51:56;;;;;;;16.60;7.60;;;;;;;;;;5056222;28;20086;-86
2021/01/02 05:54:25;;;;;;;31.88;12.75;;;;;;;;;;5052634;28;20092;-86
2021/01/02 05:56:51;;;;;;;25.15;9.27;;;;;;;;;;5047236;28;20025;-86
2021/01/02 05:59:27;;;;;;;18.58;8.57;;;;;;;;;;5063441;28;20029;-86
2021/01/02 06:01:53;;;;;;;18.35;8.25;;;;;;;;;;5050877;28;20099;-85
2021/01/02 06:04:19;;;;;;;20.15;8.85;;;;;;;;;;5065073;28;20029;-86
2021/01/02 06:06:46;;;;;;;20.08;9.43;;;;;;;;;;5047470;28;20406;-86
2021/01/02 06:09:12;;;;;;;22.10;9.50;;;;;;;;;;5049504;28;20044;-87
2021/01/02 06:11:39;;;;;;;31.25;12.85;;;;;;;;;;5049607;28;20029;-87
2021/01/02 06:14:07;;;;;;;39.13;15.82;;;;;;;;;;5060695;28;20028;-86
2021/01/02 06:16:34;;;;;;;30.95;13.05;;;;;;;;;;5056232;28;20068;-88
2021/01/02 06:19:00;;;;;;;23.70;12.40;;;;;;;;;;5055014;28;20017;-88
2021/01/02 06:21:29;;;;;;;27.20;12.77;;;;;;;;;;5049590;28;20029;-88
2021/01/02 06:23:55;;;;;;;27.40;11.20;;;;;;;;;;5043587;28;20067;-88
2021/01/02 06:26:21;;;;;;;27.05;12.10;;;;;;;;;;5043086;28;20024;-88
2021/01/02 06:28:48;;;;;;;31.50;12.98;;;;;;;;;;5046723;28;20090;-88
2021/01/02 06:31:15;;;;;;;33.40;13.68;;;;;;;;;;5044005;28;20047;-88
2021/01/02 06:33:45;;;;;;;29.48;13.23;;;;;;;;;;5045208;28;20035;-88
2021/01/02 06:36:30;;;;;;;33.25;15.73;;;;;;;;;;5052630;28;20544;-87
2021/01/02 06:39:15;;;;;;;67.18;22.95;;;;;;;;;;5051203;28;20032;-87
2021/01/02 06:41:41;;;;;;;54.65;20.65;;;;;;;;;;5050289;28;20552;-88
2021/01/02 06:44:07;;;;;;;42.75;17.88;;;;;;;;;;5054475;28;20111;-88
2021/01/02 06:46:37;;;;;;;43.28;18.80;;;;;;;;;;5050516;28;20029;-87
2021/01/02 06:49:23;;;;;;;29.02;14.63;;;;;;;;;;5050602;28;20029;-87
2021/01/02 06:51:52;;;;;;;30.42;12.10;;;;;;;;;;5049768;28;20059;-87
2021/01/02 06:54:23;;;;;;;25.55;10.45;;;;;;;;;;5048997;28;20086;-86
2021/01/02 06:57:00;;;;;;;25.03;9.00;;;;;;;;;;5050266;28;20025;-86
2021/01/02 06:59:26;;;;;;;27.30;9.15;;;;;;;;;;5046172;28;20895;-88
2021/01/02 07:01:52;;;;;;;21.02;9.43;;;;;;;;;;5047158;28;20537;-89
2021/01/02 07:04:33;;;;;;;23.10;10.40;;;;;;;;;;5054800;28;20032;-90
2021/01/02 07:06:59;;;;;;;28.83;10.87;;;;;;;;;;5049666;28;20021;-89
2021/01/02 07:09:26;;;;;;;21.83;9.52;;;;;;;;;;5055357;28;20418;-89
2021/01/02 07:12:05;;;;;;;22.10;9.48;;;;;;;;;;5054503;28;20014;-89
2021/01/02 07:14:31;;;;;;;20.02;10.00;;;;;;;;;;5055117;28;20039;-88
2021/01/02 07:17:02;;;;;;;17.15;8.43;;;;;;;;;;5058444;28;20025;-88
2021/01/02 07:19:37;;;;;;;40.15;11.60;;;;;;;;;;5063282;28;20072;-88
2021/01/02 07:22:21;;;;;;;31.98;10.55;;;;;;;;;;5054008;28;20033;-88
2021/01/02 07:24:47;;;;;;;23.42;9.65;;;;;;;;;;5050047;28;20049;-88
2021/01/02 07:27:21;;;;;;;16.05;8.60;;;;;;;;;;5053225;28;20147;-88
2021/01/02 07:29:47;;;;;;;19.60;9.40;;;;;;;;;;5052490;28;20045;-88
2021/01/02 07:32:14;;;;;;;22.02;8.73;;;;;;;;;;5048137;28;20025;-86
2021/01/02 07:34:42;;;;;;;17.60;8.40;;;;;;;;;;5039553;28;20033;-87
2021/01/02 07:37:09;;;;;;;17.80;7.82;;;;;;;;;;5048885;28;20024;-85
2021/01/02 07:39:36;;;;;;;16.40;7.53;;;;;;;;;;5053531;28;20025;-85
2021/01/02 07:42:08;;;;;;;19.88;8.55;;;;;;;;;;5053048;28;20074;-85
2021/01/02 07:44:34;;;;;;;17.20;7.30;;;;;;;;;;5052714;28;20024;-84
2021/01/02 07:47:01;;;;;;;18.55;7.20;;;;;;;;;;5047003;28;20398;-84
2021/01/02 07:49:27;;;;;;;13.95;7.30;;;;;;;;;;5053694;28;20017;-85
2021/01/02 07:51:53;;;;;;;14.75;7.60;;;;;;;;;;5052159;28;20029;-84
2021/01/02 07:54:31;;;;;;;19.05;7.80;;;;;;;;;;5052047;28;20029;-84
2021/01/02 07:56:58;;;;;;;21.35;8.60;;;;;;;;;;5053516;28;20052;-84
2021/01/02 07:59:28;;;;;;;28.73;9.60;;;;;;;;;;5053604;28;20529;-86
2021/01/02 08:01:59;;;;;;;20.38;8.65;;;;;;;;;;5052376;28;20025;-86
2021/01/02 08:04:25;;;;;;;36.85;11.00;;;;;;;;;;5055779;28;20033;-87
2021/01/02 08:06:53;;;;;;;20.25;9.07;;;;;;;;;;5050796;28;20025;-86
2021/01/02 08:09:19;;;;;;;19.65;9.73;;;;;;;;;;5053671;28;20104;-85
2021/01/02 08:11:55;;;;;;;23.35;10.07;;;;;;;;;;5050267;28;20057;-87
2021/01/02 08:14:22;;;;;;;31.60;11.88;;;;;;;;;;5051294;28;20032;-87
2021/01/02 08:17:00;;;;;;;30.13;12.48;;;;;;;;;;5050689;28;20017;-86
2021/01/02 08:19:26;;;;;;;24.63;12.02;;;;;;;;;;5058641;28;20052;-86
2021/01/02 08:21:52;;;;;;;28.10;12.45;;;;;;;;;;5051979;28;20035;-86
2021/01/02 08:24:19;;;;;;;24.35;11.15;;;;;;;;;;5049231;28;20488;-86
2021/01/02 08:26:46;;;;;;;25.65;11.88;;;;;;;;;;5050832;28;20096;-86
2021/01/02 08:29:12;;;;;;;31.65;14.35;;;;;;;;;;5051557;28;20056;-87
2021/01/02 08:31:45;;;;;;;27.38;12.38;;;;;;;;;;5051106;28;20059;-87
2021/01/02 08:34:13;;;;;;;27.92;13.60;;;;;;;;;;5042836;28;20021;-85
2021/01/02 08:36:42;;;;;;;33.03;14.82;;;;;;;;;;5044627;28;20029;-88
2021/01/02 08:39:08;;;;;;;27.02;12.90;;;;;;;;;;5050065;28;20486;-88
2021/01/02 08:41:35;;;;;;;27.38;13.98;;;;;;;;;;5048366;28;20052;-88
2021/01/02 08:44:03;;;;;;;30.50;14.60;;;;;;;;;;5065067;28;20026;-88
2021/01/02 08:46:29;;;;;;;34.03;14.13;;;;;;;;;;5046232;28;20029;-88
2021/01/02 08:48:55;;;;;;;31.40;15.15;;;;;;;;;;5044292;28;20025;-87
2021/01/02 08:51:30;;;;;;;33.40;14.80;;;;;;;;;;5058671;28;20410;-86
2021/01/02 08:53:56;;;;;;;35.38;15.15;;;;;;;;;;5045285;28;20529;-86
2021/01/02 08:56:27;;;;;;;37.35;16.63;;;;;;;;;;5043519;28;20051;-88
2021/01/02 08:58:53;;;;;;;36.40;16.48;;;;;;;;;;5037769;28;20033;-87
2021/01/02 09:01:20;;;;;;;39.08;17.75;;;;;;;;;;5041626;28;20041;-88
2021/01/02 09:03:46;;;;;;;41.08;17.20;;;;;;;;;;5051311;28;20033;-86
2021/01/02 09:06:22;;;;;;;45.95;18.80;;;;;;;;;;5038396;28;20067;-88
2021/01/02 09:09:07;;;;;;;42.97;19.00;;;;;;;;;;5047101;28;20033;-88
2021/01/02 09:11:46;;;;;;;38.00;16.60;;;;;;;;;;5045289;28;20029;-87
2021/01/02 09:14:12;;;;;;;41.25;16.65;;;;;;;;;;5050917;28;20033;-86
2021/01/02 09:16:38;;;;;;;41.60;17.67;;;;;;;;;;5035024;28;20033;-86
2021/01/02 09:19:04;;;;;;;40.17;17.35;;;;;;;;;;5054175;28;20033;-87
2021/01/02 09:21:30;;;;;;;40.33;15.60;;;;;;;;;;5046351;28;20112;-87
2021/01/02 09:23:56;;;;;;;33.85;15.45;;;;;;;;;;5056592;28;20486;-87
2021/01/02 09:26:27;;;;;;;41.63;16.50;;;;;;;;;;5048598;28;20039;-86
2021/01/02 09:28:54;;;;;;;42.67;16.92;;;;;;;;;;5051802;28;20052;-87
2021/01/02 09:31:21;;;;;;;45.00;16.70;;;;;;;;;;5048362;28;20037;-87
2021/01/02 09:33:47;;;;;;;49.15;17.98;;;;;;;;;;5068231;28;20086;-95
2021/01/02 09:36:14;;;;;;;44.78;17.85;;;;;;;;;;5053284;28;20035;-94
2021/01/02 09:38:40;;;;;;;50.83;19.65;;;;;;;;;;5050627;28;20036;-95
2021/01/02 09:41:06;;;;;;;50.15;19.17;;;;;;;;;;5045320;28;20063;-96
2021/01/02 09:43:33;;;;;;;45.45;19.33;;;;;;;;;;5050895;28;20036;-96
2021/01/02 09:45:59;;;;;;;41.53;19.50;;;;;;;;;;5050278;28;20029;-95
2021/01/02 09:48:25;;;;;;;41.95;19.50;;;;;;;;;;5047329;28;20038;-96
2021/01/02 09:50:52;;;;;;;51.33;19.75;;;;;;;;;;5063138;28;20021;-95
2021/01/02 09:53:18;;;;;;;53.65;20.85;;;;;;;;;;5043645;28;20609;-93
2021/01/02 09:55:44;;;;;;;43.33;16.92;;;;;;;;;;5056086;28;20538;-94
2021/01/02 09:58:11;;;;;;;35.20;14.40;;;;;;;;;;5060621;28;20036;-94
2021/01/02 10:00:37;;;;;;;48.28;18.85;;;;;;;;;;5039212;28;20021;-94
2021/01/02 10:03:04;;;;;;;41.10;16.60;;;;;;;;;;5067992;28;20088;-96
2021/01/02 10:05:30;;;;;;;27.25;9.05;;;;;;;;;;5046726;28;20022;-95
2021/01/02 10:07:56;;;;;;;36.63;15.30;;;;;;;;;;5043203;28;20029;-96
2021/01/02 10:10:22;;;;;;;40.22;14.15;;;;;;;;;;5034475;28;20075;-94
2021/01/02 10:12:49;;;;;;;23.63;9.82;;;;;;;;;;5050606;28;20487;-94
2021/01/02 10:15:16;;;;;;;23.27;7.50;;;;;;;;;;5047275;28;20246;-95
2021/01/02 10:17:42;;;;;;;18.48;4.30;;;;;;;;;;5050334;28;20024;-95
2021/01/02 10:20:09;;;;;;;17.05;3.58;;;;;;;;;;5056698;28;20020;-89
2021/01/02 10:22:35;;;;;;;11.48;2.55;;;;;;;;;;5061155;28;20033;-88
2021/01/02 10:25:01;;;;;;;12.80;1.80;;;;;;;;;;5059010;28;20024;-88
2021/01/02 10:27:28;;;;;;;8.10;1.58;;;;;;;;;;5041253;28;20033;-88
2021/01/02 10:29:55;;;;;;;13.60;1.60;;;;;;;;;;5055627;28;20056;-90
2021/01/02 10:32:23;;;;;;;9.05;1.48;;;;;;;;;;5058587;28;20041;-90
2021/01/02 10:34:49;;;;;;;16.02;1.75;;;;;;;;;;5044257;28;20037;-89
2021/01/02 10:37:16;;;;;;;12.00;1.80;;;;;;;;;;5050644;28;20033;-89
2021/01/02 10:39:42;;;;;;;17.42;3.53;;;;;;;;;;5040204;28;20025;-90
2021/01/02 10:42:09;;;;;;;15.70;3.22;;;;;;;;;;5070032;28;20017;-89
2021/01/02 10:44:35;;;;;;;17.67;3.28;;;;;;;;;;5064020;28;20036;-89
2021/01/02 10:47:01;;;;;;;14.82;3.33;;;;;;;;;;5053327;28;20116;-89
2021/01/02 10:49:27;;;;;;;18.42;3.25;;;;;;;;;;5052131;28;20029;-90
2021/01/02 10:51:54;;;;;;;17.73;2.35;;;;;;;;;;5041968;28;20075;-91
2021/01/02 10:54:21;;;;;;;15.40;2.97;;;;;;;;;;5052875;28;20040;-92
2021/01/02 10:56:48;;;;;;;12.48;2.88;;;;;;;;;;5048895;28;20076;-91
2021/01/02 10:59:14;;;;;;;10.65;2.92;;;;;;;;;;5048187;28;20118;-89
2021/01/02 11:01:48;;;;;;;6.55;1.90;;;;;;;;;;5051750;28;20033;-90
2021/01/02 11:04:14;;;;;;;17.52;3.22;;;;;;;;;;5044515;28;20519;-89
2021/01/02 11:06:41;;;;;;;10.68;2.20;;;;;;;;;;5056495;28;20297;-89
2021/01/02 11:09:08;;;;;;;9.30;2.15;;;;;;;;;;5044555;28;20044;-94
2021/01/02 11:11:35;;;;;;;11.95;3.50;;;;;;;;;;5052008;28;20533;-91
2021/01/02 11:14:01;;;;;;;17.23;4.88;;;;;;;;;;5062200;28;20076;-93
2021/01/02 11:16:36;;;;;;;14.57;3.38;;;;;;;;;;5050255;28;20413;-92
2021/01/02 11:19:03;;;;;;;12.80;2.22;;;;;;;;;;5053788;28;20017;-91
2021/01/02 11:21:29;;;;;;;24.92;3.67;;;;;;;;;;5053215;28;20021;-90
2021/01/02 11:23:55;;;;;;;15.63;2.65;;;;;;;;;;5050099;28;20151;-93
2021/01/02 11:26:21;;;;;;;14.60;2.25;;;;;;;;;;5060273;28;20021;-89
2021/01/02 11:28:47;;;;;;;15.02;2.58;;;;;;;;;;5054821;28;20045;-88
2021/01/02 11:31:13;;;;;;;13.18;3.28;;;;;;;;;;5049943;28;20464;-88
2021/01/02 11:33:40;;;;;;;15.07;5.10;;;;;;;;;;5051217;28;20036;-88
2021/01/02 11:36:06;;;;;;;11.18;5.10;;;;;;;;;;5048081;28;20116;-88
2021/01/02 11:38:32;;;;;;;13.57;3.75;;;;;;;;;;5051501;28;20025;-88
2021/01/02 11:40:58;;;;;;;15.65;6.03;;;;;;;;;;5051340;28;20021;-88
2021/01/02 11:43:24;;;;;;;13.95;3.95;;;;;;;;;;5055970;28;20155;-89
2021/01/02 11:45:53;;;;;;;12.48;2.35;;;;;;;;;;5050610;28;20048;-88
2021/01/02 11:48:19;;;;;;;7.20;1.60;;;;;;;;;;5062856;28;20029;-95
2021/01/02 11:50:45;;;;;;;10.07;1.77;;;;;;;;;;5062995;28;20043;-86
2021/01/02 11:53:11;;;;;;;5.90;2.10;;;;;;;;;;5065217;28;20025;-89
2021/01/02 11:55:37;;;;;;;8.48;1.58;;;;;;;;;;5059310;28;20051;-89
2021/01/02 11:58:06;;;;;;;8.95;1.52;;;;;;;;;;5056928;28;20044;-89
2021/01/02 12:00:32;;;;;;;4.68;1.15;;;;;;;;;;5060951;28;20040;-89
2021/01/02 12:02:58;;;;;;;10.13;1.40;;;;;;;;;;5061404;28;20025;-91
2021/01/02 12:05:24;;;;;;;3.72;1.20;;;;;;;;;;5070555;28;20104;-90
2021/01/02 12:07:51;;;;;;;6.78;1.65;;;;;;;;;;5058216;28;20021;-90
2021/01/02 12:10:17;;;;;;;4.63;1.25;;;;;;;;;;5043786;28;20043;-91
2021/01/02 12:12:44;;;;;;;5.30;1.17;;;;;;;;;;5051909;28;20098;-89
2021/01/02 12:15:10;;;;;;;6.18;1.50;;;;;;;;;;5051223;28;20057;-92
2021/01/02 12:17:38;;;;;;;3.70;1.08;;;;;;;;;;5053269;28;20032;-91
2021/01/02 12:20:04;;;;;;;5.68;1.17;;;;;;;;;;5056376;28;20107;-91
2021/01/02 12:22:30;;;;;;;4.45;0.95;;;;;;;;;;5054500;28;20041;-90
2021/01/02 12:24:57;;;;;;;10.50;1.70;;;;;;;;;;5053446;28;20512;-90
2021/01/02 12:27:23;;;;;;;8.60;4.10;;;;;;;;;;5056091;28;20403;-91
2021/01/02 12:29:58;;;;;;;15.27;1.98;;;;;;;;;;5053732;28;20079;-88
2021/01/02 12:32:27;;;;;;;4.88;1.00;;;;;;;;;;5053642;28;20119;-86
2021/01/02 12:34:53;;;;;;;9.15;1.15;;;;;;;;;;5051506;28;20060;-87
2021/01/02 12:37:19;;;;;;;15.43;1.65;;;;;;;;;;5048488;28;20079;-86
2021/01/02 12:39:46;;;;;;;12.60;1.63;;;;;;;;;;5054982;28;20036;-86
2021/01/02 12:42:12;;;;;;;6.72;0.82;;;;;;;;;;5052075;28;20553;-86
2021/01/02 12:44:38;;;;;;;8.75;1.25;;;;;;;;;;5052397;28;20585;-85
2021/01/02 12:47:07;;;;;;;8.27;1.15;;;;;;;;;;5050538;28;20515;-84
2021/01/02 12:49:33;;;;;;;6.28;1.13;;;;;;;;;;5053359;28;20025;-85
2021/01/02 12:52:03;;;;;;;7.30;1.52;;;;;;;;;;5054495;28;20024;-87
2021/01/02 12:54:30;;;;;;;11.98;1.52;;;;;;;;;;5050836;28;20053;-88
2021/01/02 12:56:56;;;;;;;3.65;0.80;;;;;;;;;;5051318;28;20021;-87
2021/01/02 12:59:24;;;;;;;12.00;1.20;;;;;;;;;;5055211;28;20146;-85
2021/01/02 13:01:51;;;;;;;5.88;1.75;;;;;;;;;;5054412;28;20025;-86
2021/01/02 13:04:17;;;;;;;7.13;1.13;;;;;;;;;;5052154;28;20517;-86
2021/01/02 13:06:57;;;;;;;3.88;0.80;;;;;;;;;;5048311;28;20036;-85
2021/01/02 13:09:24;;;;;;;5.95;1.02;;;;;;;;;;5050322;28;20526;-85
2021/01/02 13:11:52;;;;;;;7.70;1.00;;;;;;;;;;5051057;28;20035;-85
2021/01/02 13:14:18;;;;;;;6.28;1.90;;;;;;;;;;5054309;28;20059;-86
2021/01/02 13:16:48;;;;;;;4.60;1.42;;;;;;;;;;5046571;28;20032;-85
2021/01/02 13:19:15;;;;;;;4.10;0.85;;;;;;;;;;5051129;28;20742;-85
2021/01/02 13:21:48;;;;;;;6.75;1.10;;;;;;;;;;5063185;28;20039;-85
2021/01/02 13:24:14;;;;;;;4.90;0.98;;;;;;;;;;5038037;28;20032;-90
2021/01/02 13:26:40;;;;;;;11.00;2.60;;;;;;;;;;5055114;28;20099;-88
2021/01/02 13:29:06;;;;;;;6.30;1.55;;;;;;;;;;5051810;28;20102;-87
2021/01/02 13:31:38;;;;;;;8.90;1.48;;;;;;;;;;5051391;28;20510;-87
2021/01/02 13:34:05;;;;;;;9.23;1.30;;;;;;;;;;5051395;28;20025;-86
2021/01/02 13:36:31;;;;;;;11.43;1.15;;;;;;;;;;5048730;28;20025;-87
2021/01/02 13:38:57;;;;;;;6.47;1.38;;;;;;;;;;5052773;28;20041;-88
2021/01/02 13:41:26;;;;;;;5.30;1.00;;;;;;;;;;5051614;28;20032;-84
2021/01/02 13:43:53;;;;;;;9.60;1.20;;;;;;;;;;5062205;28;20025;-85
2021/01/02 13:46:19;;;;;;;4.95;0.95;;;;;;;;;;5045176;28;20029;-84
2021/01/02 13:48:45;;;;;;;9.30;1.20;;;;;;;;;;5048619;28;20032;-86
2021/01/02 13:51:11;;;;;;;8.52;0.95;;;;;;;;;;5047991;28;20033;-85
2021/01/02 13:53:37;;;;;;;6.22;1.17;;;;;;;;;;5051513;28;20047;-86
2021/01/02 13:56:03;;;;;;;4.18;1.02;;;;;;;;;;5048553;28;20325;-86
2021/01/02 13:58:29;;;;;;;8.77;1.02;;;;;;;;;;5055019;28;20530;-87
2021/01/02 14:00:55;;;;;;;3.75;0.80;;;;;;;;;;5052624;28;20021;-87
2021/01/02 14:03:21;;;;;;;5.85;0.82;;;;;;;;;;5051085;28;20032;-88
2021/01/02 14:05:47;;;;;;;4.95;0.98;;;;;;;;;;5047996;28;20029;-86
2021/01/02 14:08:13;;;;;;;6.40;0.95;;;;;;;;;;5058017;28;20044;-87
2021/01/02 14:10:39;;;;;;;8.50;0.70;;;;;;;;;;5052424;28;20024;-86
2021/01/02 14:13:05;;;;;;;5.20;0.98;;;;;;;;;;5051954;28;20074;-87
2021/01/02 14:15:31;;;;;;;11.02;1.08;;;;;;;;;;5050659;28;20051;-87
2021/01/02 14:17:58;;;;;;;7.40;1.17;;;;;;;;;;5049886;28;20062;-86
2021/01/02 14:20:24;;;;;;;6.70;1.38;;;;;;;;;;5073146;28;20028;-94
2021/01/02 14:22:50;;;;;;;9.00;1.08;;;;;;;;;;5066860;28;20024;-93
2021/01/02 14:25:17;;;;;;;6.85;0.70;;;;;;;;;;5074028;28;20170;-94
2021/01/02 14:27:43;;;;;;;7.30;1.00;;;;;;;;;;5057287;28;20037;-88
2021/01/02 14:30:10;;;;;;;5.32;1.00;;;;;;;;;;5050619;28;20052;-88
2021/01/02 14:32:36;;;;;;;5.78;0.88;;;;;;;;;;5051359;28;20037;-85
2021/01/02 14:35:03;;;;;;;5.55;0.85;;;;;;;;;;5046579;28;20021;-85
2021/01/02 14:37:29;;;;;;;8.88;1.08;;;;;;;;;;5049153;28;20301;-86
2021/01/02 14:39:55;;;;;;;4.45;0.93;;;;;;;;;;5044981;28;20108;-87